KUCY/UCY METAR and TAF weather

Enter ICAO airport designator
Station Type Date Time Source
KUCY METAR 2020/01/28 20:55 UTC NOAA

KUCY 282055Z AUTO 04004KT 7SM SCT013 OVC026 04/02 A3005 RMK A01


Station Type Date Time Source
KUCY Decoded METAR 2020/01/28 20:55 UTC NOAA

Station name not available
Jan 28, 2020 - 03:55 PM EST / 2020.01.28 2055 UTC
Wind: from the NE (040 degrees) at 5 MPH (4 KT):0
Visibility: 7 mile(s):0
Sky conditions: overcast
Temperature: 39 F (4 C)
Dew Point: 35 F (2 C)
Relative Humidity: 86%
Pressure (altimeter): 30.05 in. Hg (1017 hPa)
ob: KUCY 282055Z AUTO 04004KT 7SM SCT013 OVC026 04/02 A3005 RMK A01
cycle: 21

Station Type Date Time Source
KUCY TAF UTC NOAA

Error!

Example: see airport list